sensor_id;sensor_type;location;lat;lon;timestamp;P1;durP1;ratioP1;P2;durP2;ratioP2
20880;SDS011;10600;53.096;8.802;2023-11-22T00:00:13;31.85;;;14.43;;
20880;SDS011;10600;53.096;8.802;2023-11-22T00:01:14;28.83;;;14.00;;
20880;SDS011;10600;53.096;8.802;2023-11-22T00:02:15;31.90;;;14.63;;
20880;SDS011;10600;53.096;8.802;2023-11-22T00:03:15;32.42;;;15.05;;
20880;SDS011;10600;53.096;8.802;2023-11-22T00:04:16;29.08;;;15.35;;
20880;SDS011;10600;53.096;8.802;2023-11-22T00:05:18;27.15;;;14.35;;
20880;SDS011;10600;53.096;8.802;2023-11-22T00:06:21;30.23;;;14.85;;
20880;SDS011;10600;53.096;8.802;2023-11-22T00:07:22;26.52;;;14.27;;
20880;SDS011;10600;53.096;8.802;2023-11-22T00:08:23;25.52;;;14.05;;
20880;SDS011;10600;53.096;8.802;2023-11-22T00:09:23;28.73;;;14.68;;
20880;SDS011;10600;53.096;8.802;2023-11-22T00:10:24;28.90;;;15.23;;
20880;SDS011;10600;53.096;8.802;2023-11-22T00:11:24;28.05;;;14.30;;
20880;SDS011;10600;53.096;8.802;2023-11-22T00:12:25;28.05;;;14.68;;
20880;SDS011;10600;53.096;8.802;2023-11-22T00:13:26;26.55;;;14.70;;
20880;SDS011;10600;53.096;8.802;2023-11-22T00:14:27;26.90;;;14.38;;
20880;SDS011;10600;53.096;8.802;2023-11-22T00:15:27;26.10;;;14.43;;
20880;SDS011;10600;53.096;8.802;2023-11-22T00:16:28;30.75;;;15.48;;
20880;SDS011;10600;53.096;8.802;2023-11-22T00:17:30;26.50;;;14.60;;
20880;SDS011;10600;53.096;8.802;2023-11-22T00:18:31;30.63;;;14.63;;
20880;SDS011;10600;53.096;8.802;2023-11-22T00:19:32;30.55;;;15.20;;
20880;SDS011;10600;53.096;8.802;2023-11-22T00:20:33;28.48;;;14.43;;
20880;SDS011;10600;53.096;8.802;2023-11-22T00:21:34;29.67;;;14.88;;
20880;SDS011;10600;53.096;8.802;2023-11-22T00:22:35;28.25;;;14.45;;
20880;SDS011;10600;53.096;8.802;2023-11-22T00:23:36;32.72;;;15.95;;
20880;SDS011;10600;53.096;8.802;2023-11-22T00:24:37;31.50;;;16.02;;
20880;SDS011;10600;53.096;8.802;2023-11-22T00:25:37;29.35;;;14.57;;
20880;SDS011;10600;53.096;8.802;2023-11-22T00:26:38;28.73;;;15.00;;
20880;SDS011;10600;53.096;8.802;2023-11-22T00:27:39;26.95;;;14.88;;
20880;SDS011;10600;53.096;8.802;2023-11-22T00:28:39;32.05;;;15.75;;
20880;SDS011;10600;53.096;8.802;2023-11-22T00:29:40;33.15;;;16.05;;
20880;SDS011;10600;53.096;8.802;2023-11-22T00:30:40;31.17;;;15.43;;
20880;SDS011;10600;53.096;8.802;2023-11-22T00:31:41;30.98;;;14.63;;
20880;SDS011;10600;53.096;8.802;2023-11-22T00:32:42;37.35;;;18.40;;
20880;SDS011;10600;53.096;8.802;2023-11-22T00:33:43;32.50;;;15.90;;
20880;SDS011;10600;53.096;8.802;2023-11-22T00:34:43;29.80;;;14.70;;
20880;SDS011;10600;53.096;8.802;2023-11-22T00:35:44;32.97;;;16.50;;
20880;SDS011;10600;53.096;8.802;2023-11-22T00:36:45;31.48;;;15.85;;
20880;SDS011;10600;53.096;8.802;2023-11-22T00:37:45;28.02;;;15.35;;
20880;SDS011;10600;53.096;8.802;2023-11-22T00:38:46;29.48;;;15.25;;
20880;SDS011;10600;53.096;8.802;2023-11-22T00:39:47;31.15;;;16.35;;
20880;SDS011;10600;53.096;8.802;2023-11-22T00:40:48;29.95;;;15.25;;
20880;SDS011;10600;53.096;8.802;2023-11-22T00:41:48;34.83;;;16.75;;
20880;SDS011;10600;53.096;8.802;2023-11-22T00:42:49;36.50;;;17.25;;
20880;SDS011;10600;53.096;8.802;2023-11-22T00:43:49;35.28;;;16.45;;
20880;SDS011;10600;53.096;8.802;2023-11-22T00:44:53;31.98;;;15.60;;
20880;SDS011;10600;53.096;8.802;2023-11-22T00:45:53;38.65;;;17.45;;
20880;SDS011;10600;53.096;8.802;2023-11-22T00:46:54;38.70;;;15.77;;
20880;SDS011;10600;53.096;8.802;2023-11-22T00:47:55;34.08;;;15.90;;
20880;SDS011;10600;53.096;8.802;2023-11-22T00:48:56;36.78;;;16.67;;
20880;SDS011;10600;53.096;8.802;2023-11-22T00:49:57;39.17;;;17.10;;
20880;SDS011;10600;53.096;8.802;2023-11-22T00:50:57;37.63;;;17.88;;
20880;SDS011;10600;53.096;8.802;2023-11-22T00:51:58;36.95;;;16.90;;
20880;SDS011;10600;53.096;8.802;2023-11-22T00:52:58;36.67;;;17.65;;
20880;SDS011;10600;53.096;8.802;2023-11-22T00:53:59;35.92;;;18.17;;
20880;SDS011;10600;53.096;8.802;2023-11-22T00:55:00;37.15;;;18.10;;
20880;SDS011;10600;53.096;8.802;2023-11-22T00:56:00;36.78;;;17.48;;
20880;SDS011;10600;53.096;8.802;2023-11-22T00:57:01;36.53;;;17.63;;
20880;SDS011;10600;53.096;8.802;2023-11-22T00:58:02;39.85;;;17.88;;
20880;SDS011;10600;53.096;8.802;2023-11-22T00:59:05;39.08;;;16.92;;
20880;SDS011;10600;53.096;8.802;2023-11-22T01:00:06;35.22;;;17.30;;
20880;SDS011;10600;53.096;8.802;2023-11-22T01:01:12;41.45;;;18.48;;
20880;SDS011;10600;53.096;8.802;2023-11-22T01:02:12;33.63;;;17.90;;
20880;SDS011;10600;53.096;8.802;2023-11-22T01:03:13;40.90;;;18.20;;
20880;SDS011;10600;53.096;8.802;2023-11-22T01:04:14;39.90;;;18.48;;
20880;SDS011;10600;53.096;8.802;2023-11-22T01:05:15;41.13;;;18.88;;
20880;SDS011;10600;53.096;8.802;2023-11-22T01:06:16;46.90;;;18.45;;
20880;SDS011;10600;53.096;8.802;2023-11-22T01:07:20;38.75;;;18.48;;
20880;SDS011;10600;53.096;8.802;2023-11-22T01:08:21;42.58;;;18.23;;
20880;SDS011;10600;53.096;8.802;2023-11-22T01:09:22;40.38;;;18.20;;
20880;SDS011;10600;53.096;8.802;2023-11-22T01:10:22;44.90;;;19.73;;
20880;SDS011;10600;53.096;8.802;2023-11-22T01:11:23;48.63;;;18.95;;
20880;SDS011;10600;53.096;8.802;2023-11-22T01:12:23;39.72;;;18.60;;
20880;SDS011;10600;53.096;8.802;2023-11-22T01:13:24;46.92;;;20.05;;
20880;SDS011;10600;53.096;8.802;2023-11-22T01:14:25;44.28;;;18.75;;
20880;SDS011;10600;53.096;8.802;2023-11-22T01:15:28;44.15;;;18.85;;
20880;SDS011;10600;53.096;8.802;2023-11-22T01:16:29;44.08;;;18.85;;
20880;SDS011;10600;53.096;8.802;2023-11-22T01:17:29;46.97;;;19.92;;
20880;SDS011;10600;53.096;8.802;2023-11-22T01:18:30;42.83;;;18.90;;
20880;SDS011;10600;53.096;8.802;2023-11-22T01:19:31;48.55;;;19.77;;
20880;SDS011;10600;53.096;8.802;2023-11-22T01:20:32;51.92;;;20.60;;
20880;SDS011;10600;53.096;8.802;2023-11-22T01:21:32;46.35;;;20.98;;
20880;SDS011;10600;53.096;8.802;2023-11-22T01:22:33;48.85;;;21.10;;
20880;SDS011;10600;53.096;8.802;2023-11-22T01:23:34;49.08;;;20.02;;
20880;SDS011;10600;53.096;8.802;2023-11-22T01:24:34;51.30;;;20.42;;
20880;SDS011;10600;53.096;8.802;2023-11-22T01:25:37;48.53;;;20.42;;
20880;SDS011;10600;53.096;8.802;2023-11-22T01:26:37;50.83;;;21.35;;
20880;SDS011;10600;53.096;8.802;2023-11-22T01:27:38;55.40;;;21.67;;
20880;SDS011;10600;53.096;8.802;2023-11-22T01:28:39;53.00;;;19.90;;
20880;SDS011;10600;53.096;8.802;2023-11-22T01:29:44;51.55;;;21.48;;
20880;SDS011;10600;53.096;8.802;2023-11-22T01:30:44;47.10;;;20.85;;
20880;SDS011;10600;53.096;8.802;2023-11-22T01:31:49;53.63;;;21.48;;
20880;SDS011;10600;53.096;8.802;2023-11-22T01:32:49;47.03;;;19.38;;
20880;SDS011;10600;53.096;8.802;2023-11-22T01:33:50;48.05;;;21.17;;
20880;SDS011;10600;53.096;8.802;2023-11-22T01:34:50;50.05;;;19.75;;
20880;SDS011;10600;53.096;8.802;2023-11-22T01:35:51;52.35;;;21.00;;
20880;SDS011;10600;53.096;8.802;2023-11-22T01:36:51;52.40;;;21.20;;
20880;SDS011;10600;53.096;8.802;2023-11-22T01:37:52;55.13;;;20.95;;
20880;SDS011;10600;53.096;8.802;2023-11-22T01:38:52;55.17;;;21.45;;
20880;SDS011;10600;53.096;8.802;2023-11-22T01:39:53;44.80;;;19.85;;
20880;SDS011;10600;53.096;8.802;2023-11-22T01:40:54;54.25;;;20.92;;
20880;SDS011;10600;53.096;8.802;2023-11-22T01:41:54;58.03;;;22.75;;
20880;SDS011;10600;53.096;8.802;2023-11-22T01:42:56;60.05;;;22.17;;
20880;SDS011;10600;53.096;8.802;2023-11-22T01:43:56;52.75;;;22.38;;
20880;SDS011;10600;53.096;8.802;2023-11-22T01:44:58;50.00;;;21.55;;
20880;SDS011;10600;53.096;8.802;2023-11-22T01:45:58;56.65;;;22.20;;
20880;SDS011;10600;53.096;8.802;2023-11-22T01:46:59;56.83;;;22.13;;
20880;SDS011;10600;53.096;8.802;2023-11-22T01:47:59;56.78;;;22.52;;
20880;SDS011;10600;53.096;8.802;2023-11-22T01:49:01;59.03;;;23.38;;
20880;SDS011;10600;53.096;8.802;2023-11-22T01:50:03;59.50;;;23.13;;
20880;SDS011;10600;53.096;8.802;2023-11-22T01:51:06;56.53;;;21.92;;
20880;SDS011;10600;53.096;8.802;2023-11-22T01:52:08;63.53;;;23.17;;
20880;SDS011;10600;53.096;8.802;2023-11-22T01:53:12;61.47;;;22.88;;
20880;SDS011;10600;53.096;8.802;2023-11-22T01:54:16;54.92;;;22.70;;
20880;SDS011;10600;53.096;8.802;2023-11-22T01:55:20;58.90;;;23.58;;
20880;SDS011;10600;53.096;8.802;2023-11-22T01:56:22;56.72;;;23.58;;
20880;SDS011;10600;53.096;8.802;2023-11-22T01:57:24;58.72;;;23.58;;
20880;SDS011;10600;53.096;8.802;2023-11-22T01:58:24;62.35;;;22.40;;
20880;SDS011;10600;53.096;8.802;2023-11-22T01:59:25;60.42;;;23.23;;
20880;SDS011;10600;53.096;8.802;2023-11-22T02:00:32;56.47;;;24.17;;
20880;SDS011;10600;53.096;8.802;2023-11-22T02:01:36;61.13;;;23.88;;
20880;SDS011;10600;53.096;8.802;2023-11-22T02:02:37;58.08;;;23.02;;
20880;SDS011;10600;53.096;8.802;2023-11-22T02:03:38;58.33;;;23.80;;
20880;SDS011;10600;53.096;8.802;2023-11-22T02:04:39;60.05;;;23.50;;
20880;SDS011;10600;53.096;8.802;2023-11-22T02:05:40;60.75;;;24.83;;
20880;SDS011;10600;53.096;8.802;2023-11-22T02:06:42;69.28;;;25.25;;
20880;SDS011;10600;53.096;8.802;2023-11-22T02:07:42;71.50;;;24.50;;
20880;SDS011;10600;53.096;8.802;2023-11-22T02:08:43;70.15;;;26.20;;
20880;SDS011;10600;53.096;8.802;2023-11-22T02:09:44;63.20;;;24.65;;
20880;SDS011;10600;53.096;8.802;2023-11-22T02:10:45;65.10;;;24.05;;
20880;SDS011;10600;53.096;8.802;2023-11-22T02:11:57;67.05;;;24.40;;
20880;SDS011;10600;53.096;8.802;2023-11-22T02:12:57;64.43;;;25.40;;
20880;SDS011;10600;53.096;8.802;2023-11-22T02:13:58;60.05;;;23.92;;
20880;SDS011;10600;53.096;8.802;2023-11-22T02:14:59;63.90;;;24.60;;
20880;SDS011;10600;53.096;8.802;2023-11-22T02:15:59;67.70;;;24.85;;
20880;SDS011;10600;53.096;8.802;2023-11-22T02:17:01;72.15;;;27.20;;
20880;SDS011;10600;53.096;8.802;2023-11-22T02:18:02;66.00;;;25.48;;
20880;SDS011;10600;53.096;8.802;2023-11-22T02:19:04;62.50;;;24.58;;
20880;SDS011;10600;53.096;8.802;2023-11-22T02:20:07;64.63;;;25.45;;
20880;SDS011;10600;53.096;8.802;2023-11-22T02:21:11;67.50;;;26.98;;
20880;SDS011;10600;53.096;8.802;2023-11-22T02:22:11;74.18;;;26.00;;
20880;SDS011;10600;53.096;8.802;2023-11-22T02:23:12;67.88;;;25.15;;
20880;SDS011;10600;53.096;8.802;2023-11-22T02:24:12;68.13;;;25.27;;
20880;SDS011;10600;53.096;8.802;2023-11-22T02:25:13;68.00;;;25.83;;
20880;SDS011;10600;53.096;8.802;2023-11-22T02:26:15;65.10;;;25.88;;
20880;SDS011;10600;53.096;8.802;2023-11-22T02:27:17;69.90;;;26.08;;
20880;SDS011;10600;53.096;8.802;2023-11-22T02:28:20;75.35;;;26.27;;
20880;SDS011;10600;53.096;8.802;2023-11-22T02:29:21;75.07;;;27.48;;
20880;SDS011;10600;53.096;8.802;2023-11-22T02:30:21;73.25;;;26.48;;
20880;SDS011;10600;53.096;8.802;2023-11-22T02:31:23;70.80;;;26.05;;
20880;SDS011;10600;53.096;8.802;2023-11-22T02:32:24;68.80;;;26.23;;
20880;SDS011;10600;53.096;8.802;2023-11-22T02:33:25;70.47;;;25.92;;
20880;SDS011;10600;53.096;8.802;2023-11-22T02:34:26;66.25;;;25.67;;
20880;SDS011;10600;53.096;8.802;2023-11-22T02:35:26;71.30;;;27.23;;
20880;SDS011;10600;53.096;8.802;2023-11-22T02:36:27;69.88;;;27.02;;
20880;SDS011;10600;53.096;8.802;2023-11-22T02:37:27;76.50;;;26.48;;
20880;SDS011;10600;53.096;8.802;2023-11-22T02:38:28;70.13;;;25.88;;
20880;SDS011;10600;53.096;8.802;2023-11-22T02:39:33;75.25;;;28.20;;
20880;SDS011;10600;53.096;8.802;2023-11-22T02:40:45;65.07;;;24.58;;
20880;SDS011;10600;53.096;8.802;2023-11-22T02:41:45;67.65;;;26.80;;
20880;SDS011;10600;53.096;8.802;2023-11-22T02:42:46;72.75;;;26.60;;
20880;SDS011;10600;53.096;8.802;2023-11-22T02:43:48;65.90;;;26.42;;
20880;SDS011;10600;53.096;8.802;2023-11-22T02:44:48;73.20;;;26.77;;
20880;SDS011;10600;53.096;8.802;2023-11-22T02:45:49;70.95;;;27.10;;
20880;SDS011;10600;53.096;8.802;2023-11-22T02:46:49;72.65;;;27.08;;
20880;SDS011;10600;53.096;8.802;2023-11-22T02:47:50;80.45;;;28.08;;
20880;SDS011;10600;53.096;8.802;2023-11-22T02:48:52;74.50;;;28.55;;
20880;SDS011;10600;53.096;8.802;2023-11-22T02:49:54;71.57;;;27.15;;
20880;SDS011;10600;53.096;8.802;2023-11-22T02:50:55;80.18;;;28.00;;
20880;SDS011;10600;53.096;8.802;2023-11-22T02:51:56;68.80;;;26.98;;
20880;SDS011;10600;53.096;8.802;2023-11-22T02:52:56;73.28;;;28.52;;
20880;SDS011;10600;53.096;8.802;2023-11-22T02:53:58;74.72;;;28.88;;
20880;SDS011;10600;53.096;8.802;2023-11-22T02:54:58;71.80;;;27.45;;
20880;SDS011;10600;53.096;8.802;2023-11-22T02:55:59;64.65;;;26.60;;
20880;SDS011;10600;53.096;8.802;2023-11-22T02:57:03;74.25;;;27.38;;
20880;SDS011;10600;53.096;8.802;2023-11-22T02:58:03;66.93;;;25.02;;
20880;SDS011;10600;53.096;8.802;2023-11-22T02:59:04;71.70;;;27.33;;
20880;SDS011;10600;53.096;8.802;2023-11-22T03:00:05;79.05;;;28.20;;
20880;SDS011;10600;53.096;8.802;2023-11-22T03:01:18;72.18;;;29.02;;
20880;SDS011;10600;53.096;8.802;2023-11-22T03:02:19;62.58;;;26.77;;
20880;SDS011;10600;53.096;8.802;2023-11-22T03:03:23;73.43;;;27.98;;
20880;SDS011;10600;53.096;8.802;2023-11-22T03:04:24;69.63;;;27.00;;
20880;SDS011;10600;53.096;8.802;2023-11-22T03:05:24;76.22;;;27.27;;
20880;SDS011;10600;53.096;8.802;2023-11-22T03:06:25;71.88;;;28.08;;
20880;SDS011;10600;53.096;8.802;2023-11-22T03:07:27;70.50;;;27.70;;
20880;SDS011;10600;53.096;8.802;2023-11-22T03:08:27;76.40;;;28.77;;
20880;SDS011;10600;53.096;8.802;2023-11-22T03:09:28;79.80;;;29.02;;
20880;SDS011;10600;53.096;8.802;2023-11-22T03:10:29;80.18;;;28.25;;
20880;SDS011;10600;53.096;8.802;2023-11-22T03:11:30;76.78;;;29.88;;
20880;SDS011;10600;53.096;8.802;2023-11-22T03:12:31;77.72;;;28.67;;
20880;SDS011;10600;53.096;8.802;2023-11-22T03:13:32;82.07;;;29.63;;
20880;SDS011;10600;53.096;8.802;2023-11-22T03:14:33;73.60;;;27.73;;
20880;SDS011;10600;53.096;8.802;2023-11-22T03:15:33;72.22;;;29.25;;
20880;SDS011;10600;53.096;8.802;2023-11-22T03:16:34;77.40;;;28.52;;
20880;SDS011;10600;53.096;8.802;2023-11-22T03:17:39;66.05;;;28.70;;
20880;SDS011;10600;53.096;8.802;2023-11-22T03:18:39;79.00;;;29.42;;
20880;SDS011;10600;53.096;8.802;2023-11-22T03:19:40;73.43;;;29.90;;
20880;SDS011;10600;53.096;8.802;2023-11-22T03:20:40;81.72;;;29.05;;
20880;SDS011;10600;53.096;8.802;2023-11-22T03:21:42;82.32;;;30.67;;
20880;SDS011;10600;53.096;8.802;2023-11-22T03:22:44;75.55;;;28.17;;
20880;SDS011;10600;53.096;8.802;2023-11-22T03:23:45;70.35;;;28.17;;
20880;SDS011;10600;53.096;8.802;2023-11-22T03:24:47;77.30;;;27.27;;
20880;SDS011;10600;53.096;8.802;2023-11-22T03:25:47;80.63;;;28.50;;
20880;SDS011;10600;53.096;8.802;2023-11-22T03:26:48;77.07;;;27.92;;
20880;SDS011;10600;53.096;8.802;2023-11-22T03:27:49;77.32;;;29.13;;
20880;SDS011;10600;53.096;8.802;2023-11-22T03:28:50;72.97;;;27.50;;
20880;SDS011;10600;53.096;8.802;2023-11-22T03:29:50;67.90;;;26.67;;
20880;SDS011;10600;53.096;8.802;2023-11-22T03:30:51;67.60;;;26.58;;
20880;SDS011;10600;53.096;8.802;2023-11-22T03:31:52;70.47;;;28.08;;
20880;SDS011;10600;53.096;8.802;2023-11-22T03:32:52;66.68;;;26.17;;
20880;SDS011;10600;53.096;8.802;2023-11-22T03:33:54;73.13;;;27.15;;
20880;SDS011;10600;53.096;8.802;2023-11-22T03:34:56;67.72;;;25.65;;
20880;SDS011;10600;53.096;8.802;2023-11-22T03:35:57;68.70;;;26.17;;
20880;SDS011;10600;53.096;8.802;2023-11-22T03:36:58;65.75;;;26.13;;
20880;SDS011;10600;53.096;8.802;2023-11-22T03:37:58;73.65;;;28.05;;
20880;SDS011;10600;53.096;8.802;2023-11-22T03:39:02;65.13;;;26.02;;
20880;SDS011;10600;53.096;8.802;2023-11-22T03:40:06;71.22;;;28.20;;
20880;SDS011;10600;53.096;8.802;2023-11-22T03:41:07;74.13;;;27.10;;
20880;SDS011;10600;53.096;8.802;2023-11-22T03:42:08;70.72;;;27.40;;
20880;SDS011;10600;53.096;8.802;2023-11-22T03:43:08;79.22;;;27.95;;
20880;SDS011;10600;53.096;8.802;2023-11-22T03:44:12;72.85;;;27.40;;
20880;SDS011;10600;53.096;8.802;2023-11-22T03:45:13;75.95;;;27.83;;
20880;SDS011;10600;53.096;8.802;2023-11-22T03:46:16;76.20;;;28.27;;
20880;SDS011;10600;53.096;8.802;2023-11-22T03:47:17;69.43;;;28.02;;
20880;SDS011;10600;53.096;8.802;2023-11-22T03:48:18;86.15;;;29.73;;
20880;SDS011;10600;53.096;8.802;2023-11-22T03:49:18;74.28;;;28.20;;
20880;SDS011;10600;53.096;8.802;2023-11-22T03:50:19;94.18;;;31.58;;
20880;SDS011;10600;53.096;8.802;2023-11-22T03:51:19;84.07;;;31.55;;
20880;SDS011;10600;53.096;8.802;2023-11-22T03:52:20;82.03;;;29.65;;
20880;SDS011;10600;53.096;8.802;2023-11-22T03:53:20;92.45;;;31.20;;
20880;SDS011;10600;53.096;8.802;2023-11-22T03:54:22;85.32;;;30.73;;
20880;SDS011;10600;53.096;8.802;2023-11-22T03:55:22;88.18;;;29.73;;
20880;SDS011;10600;53.096;8.802;2023-11-22T03:56:23;89.75;;;30.92;;
20880;SDS011;10600;53.096;8.802;2023-11-22T03:57:24;82.35;;;31.58;;
20880;SDS011;10600;53.096;8.802;2023-11-22T03:58:28;90.30;;;29.92;;
20880;SDS011;10600;53.096;8.802;2023-11-22T03:59:28;84.20;;;30.10;;
20880;SDS011;10600;53.096;8.802;2023-11-22T04:00:29;85.00;;;29.83;;
20880;SDS011;10600;53.096;8.802;2023-11-22T04:01:30;75.38;;;28.58;;
20880;SDS011;10600;53.096;8.802;2023-11-22T04:02:30;76.60;;;29.00;;
20880;SDS011;10600;53.096;8.802;2023-11-22T04:03:31;78.60;;;30.00;;
20880;SDS011;10600;53.096;8.802;2023-11-22T04:04:32;86.45;;;30.70;;
20880;SDS011;10600;53.096;8.802;2023-11-22T04:05:32;97.97;;;31.88;;
20880;SDS011;10600;53.096;8.802;2023-11-22T04:06:33;83.25;;;29.60;;
20880;SDS011;10600;53.096;8.802;2023-11-22T04:07:33;86.35;;;30.30;;
20880;SDS011;10600;53.096;8.802;2023-11-22T04:08:34;75.75;;;29.63;;
20880;SDS011;10600;53.096;8.802;2023-11-22T04:09:35;91.30;;;30.23;;
20880;SDS011;10600;53.096;8.802;2023-11-22T04:10:35;94.00;;;30.77;;
20880;SDS011;10600;53.096;8.802;2023-11-22T04:11:36;74.78;;;27.70;;
20880;SDS011;10600;53.096;8.802;2023-11-22T04:12:36;76.88;;;27.50;;
20880;SDS011;10600;53.096;8.802;2023-11-22T04:13:37;77.82;;;28.77;;
20880;SDS011;10600;53.096;8.802;2023-11-22T04:14:38;84.60;;;30.80;;
20880;SDS011;10600;53.096;8.802;2023-11-22T04:15:38;77.18;;;28.42;;
20880;SDS011;10600;53.096;8.802;2023-11-22T04:16:39;81.10;;;30.75;;
20880;SDS011;10600;53.096;8.802;2023-11-22T04:17:41;72.80;;;29.65;;
20880;SDS011;10600;53.096;8.802;2023-11-22T04:18:41;78.90;;;31.42;;
20880;SDS011;10600;53.096;8.802;2023-11-22T04:19:43;80.07;;;28.75;;
20880;SDS011;10600;53.096;8.802;2023-11-22T04:20:43;70.70;;;28.00;;
20880;SDS011;10600;53.096;8.802;2023-11-22T04:21:44;78.40;;;30.42;;
20880;SDS011;10600;53.096;8.802;2023-11-22T04:22:47;79.80;;;30.33;;
20880;SDS011;10600;53.096;8.802;2023-11-22T04:23:48;82.97;;;29.98;;
20880;SDS011;10600;53.096;8.802;2023-11-22T04:24:48;87.35;;;31.75;;
20880;SDS011;10600;53.096;8.802;2023-11-22T04:25:49;84.18;;;31.73;;
20880;SDS011;10600;53.096;8.802;2023-11-22T04:26:50;81.70;;;30.23;;
20880;SDS011;10600;53.096;8.802;2023-11-22T04:27:50;83.35;;;29.85;;
20880;SDS011;10600;53.096;8.802;2023-11-22T04:28:51;85.07;;;29.63;;
20880;SDS011;10600;53.096;8.802;2023-11-22T04:29:51;76.78;;;29.23;;
20880;SDS011;10600;53.096;8.802;2023-11-22T04:30:52;74.93;;;29.48;;
20880;SDS011;10600;53.096;8.802;2023-11-22T04:31:53;72.05;;;28.52;;
20880;SDS011;10600;53.096;8.802;2023-11-22T04:32:54;72.85;;;29.00;;
20880;SDS011;10600;53.096;8.802;2023-11-22T04:33:54;73.13;;;27.38;;
20880;SDS011;10600;53.096;8.802;2023-11-22T04:34:57;81.18;;;31.00;;
20880;SDS011;10600;53.096;8.802;2023-11-22T04:35:58;72.82;;;28.13;;
20880;SDS011;10600;53.096;8.802;2023-11-22T04:36:59;77.97;;;29.17;;
20880;SDS011;10600;53.096;8.802;2023-11-22T04:37:59;78.47;;;29.05;;
20880;SDS011;10600;53.096;8.802;2023-11-22T04:39:00;81.57;;;30.02;;
20880;SDS011;10600;53.096;8.802;2023-11-22T04:40:00;83.57;;;30.88;;
20880;SDS011;10600;53.096;8.802;2023-11-22T04:41:03;81.88;;;30.50;;
20880;SDS011;10600;53.096;8.802;2023-11-22T04:42:04;78.70;;;30.92;;
20880;SDS011;10600;53.096;8.802;2023-11-22T04:43:05;78.47;;;31.27;;
20880;SDS011;10600;53.096;8.802;2023-11-22T04:44:06;81.97;;;30.52;;
20880;SDS011;10600;53.096;8.802;2023-11-22T04:45:07;74.47;;;29.77;;
20880;SDS011;10600;53.096;8.802;2023-11-22T04:46:09;77.45;;;31.23;;
20880;SDS011;10600;53.096;8.802;2023-11-22T04:47:10;83.78;;;30.48;;
20880;SDS011;10600;53.096;8.802;2023-11-22T04:48:10;80.75;;;30.60;;
20880;SDS011;10600;53.096;8.802;2023-11-22T04:49:11;82.20;;;30.48;;
20880;SDS011;10600;53.096;8.802;2023-11-22T04:50:13;81.85;;;30.90;;
20880;SDS011;10600;53.096;8.802;2023-11-22T04:51:14;85.25;;;30.52;;
20880;SDS011;10600;53.096;8.802;2023-11-22T04:52:16;72.15;;;29.13;;
20880;SDS011;10600;53.096;8.802;2023-11-22T04:53:18;80.70;;;30.45;;
20880;SDS011;10600;53.096;8.802;2023-11-22T04:54:19;87.90;;;33.08;;
20880;SDS011;10600;53.096;8.802;2023-11-22T04:55:19;85.18;;;30.02;;
20880;SDS011;10600;53.096;8.802;2023-11-22T04:56:20;85.05;;;31.70;;
20880;SDS011;10600;53.096;8.802;2023-11-22T04:57:21;80.15;;;31.02;;
20880;SDS011;10600;53.096;8.802;2023-11-22T04:58:22;82.57;;;32.67;;
20880;SDS011;10600;53.096;8.802;2023-11-22T04:59:22;85.18;;;32.15;;
20880;SDS011;10600;53.096;8.802;2023-11-22T05:00:23;84.28;;;31.20;;
20880;SDS011;10600;53.096;8.802;2023-11-22T05:01:24;86.93;;;33.03;;
20880;SDS011;10600;53.096;8.802;2023-11-22T05:02:25;82.18;;;32.65;;
20880;SDS011;10600;53.096;8.802;2023-11-22T05:03:27;81.13;;;31.02;;
20880;SDS011;10600;53.096;8.802;2023-11-22T05:04:27;80.22;;;31.52;;
20880;SDS011;10600;53.096;8.802;2023-11-22T05:05:28;79.10;;;31.42;;
20880;SDS011;10600;53.096;8.802;2023-11-22T05:06:28;81.75;;;31.63;;
20880;SDS011;10600;53.096;8.802;2023-11-22T05:07:29;86.88;;;32.53;;
20880;SDS011;10600;53.096;8.802;2023-11-22T05:08:29;82.15;;;31.88;;
20880;SDS011;10600;53.096;8.802;2023-11-22T05:09:30;89.43;;;31.33;;
20880;SDS011;10600;53.096;8.802;2023-11-22T05:10:30;81.07;;;31.80;;
20880;SDS011;10600;53.096;8.802;2023-11-22T05:11:31;76.95;;;29.85;;
20880;SDS011;10600;53.096;8.802;2023-11-22T05:12:32;73.35;;;30.17;;
20880;SDS011;10600;53.096;8.802;2023-11-22T05:13:33;78.32;;;30.30;;
20880;SDS011;10600;53.096;8.802;2023-11-22T05:14:33;77.88;;;30.15;;
20880;SDS011;10600;53.096;8.802;2023-11-22T05:15:34;76.97;;;29.48;;
20880;SDS011;10600;53.096;8.802;2023-11-22T05:16:34;82.13;;;30.55;;
20880;SDS011;10600;53.096;8.802;2023-11-22T05:17:35;80.00;;;31.80;;
20880;SDS011;10600;53.096;8.802;2023-11-22T05:18:36;78.60;;;30.27;;
20880;SDS011;10600;53.096;8.802;2023-11-22T05:19:36;85.10;;;31.75;;
20880;SDS011;10600;53.096;8.802;2023-11-22T05:20:37;83.85;;;31.33;;
20880;SDS011;10600;53.096;8.802;2023-11-22T05:21:37;76.60;;;29.30;;
20880;SDS011;10600;53.096;8.802;2023-11-22T05:22:38;72.80;;;27.50;;
20880;SDS011;10600;53.096;8.802;2023-11-22T05:23:38;80.85;;;30.30;;
20880;SDS011;10600;53.096;8.802;2023-11-22T05:24:39;73.25;;;29.20;;
20880;SDS011;10600;53.096;8.802;2023-11-22T05:25:41;81.28;;;31.13;;
20880;SDS011;10600;53.096;8.802;2023-11-22T05:26:41;79.03;;;30.55;;
20880;SDS011;10600;53.096;8.802;2023-11-22T05:27:42;76.50;;;29.83;;
20880;SDS011;10600;53.096;8.802;2023-11-22T05:28:42;76.30;;;28.80;;
20880;SDS011;10600;53.096;8.802;2023-11-22T05:29:48;85.43;;;32.05;;
20880;SDS011;10600;53.096;8.802;2023-11-22T05:30:49;87.50;;;31.80;;
20880;SDS011;10600;53.096;8.802;2023-11-22T05:31:55;85.93;;;31.30;;
20880;SDS011;10600;53.096;8.802;2023-11-22T05:32:56;87.90;;;32.42;;
20880;SDS011;10600;53.096;8.802;2023-11-22T05:33:57;88.38;;;31.90;;
20880;SDS011;10600;53.096;8.802;2023-11-22T05:34:58;81.03;;;30.48;;
20880;SDS011;10600;53.096;8.802;2023-11-22T05:35:59;87.50;;;31.63;;
20880;SDS011;10600;53.096;8.802;2023-11-22T05:37:00;90.43;;;31.77;;
20880;SDS011;10600;53.096;8.802;2023-11-22T05:38:00;92.32;;;33.40;;
20880;SDS011;10600;53.096;8.802;2023-11-22T05:39:02;82.88;;;33.33;;
20880;SDS011;10600;53.096;8.802;2023-11-22T05:40:04;84.63;;;32.67;;
20880;SDS011;10600;53.096;8.802;2023-11-22T05:41:05;94.18;;;35.45;;
20880;SDS011;10600;53.096;8.802;2023-11-22T05:42:06;79.32;;;32.35;;
20880;SDS011;10600;53.096;8.802;2023-11-22T05:43:06;93.35;;;33.90;;
20880;SDS011;10600;53.096;8.802;2023-11-22T05:44:08;79.28;;;32.22;;
20880;SDS011;10600;53.096;8.802;2023-11-22T05:45:09;87.38;;;31.67;;
20880;SDS011;10600;53.096;8.802;2023-11-22T05:46:10;84.63;;;32.20;;
20880;SDS011;10600;53.096;8.802;2023-11-22T05:47:12;85.63;;;32.60;;
20880;SDS011;10600;53.096;8.802;2023-11-22T05:48:13;83.47;;;32.35;;
20880;SDS011;10600;53.096;8.802;2023-11-22T05:49:13;85.72;;;31.67;;
20880;SDS011;10600;53.096;8.802;2023-11-22T05:50:14;80.72;;;32.55;;
20880;SDS011;10600;53.096;8.802;2023-11-22T05:51:15;80.50;;;31.48;;
20880;SDS011;10600;53.096;8.802;2023-11-22T05:52:16;83.97;;;32.17;;
20880;SDS011;10600;53.096;8.802;2023-11-22T05:53:16;98.32;;;34.13;;
20880;SDS011;10600;53.096;8.802;2023-11-22T05:54:19;89.55;;;33.20;;
20880;SDS011;10600;53.096;8.802;2023-11-22T05:55:20;80.72;;;33.75;;
20880;SDS011;10600;53.096;8.802;2023-11-22T05:56:22;84.80;;;32.92;;
20880;SDS011;10600;53.096;8.802;2023-11-22T05:57:23;93.18;;;34.50;;